Pacific Beryl — 9V9809 — position and weather

sailwx.info

Track history (hours):
 
Tides and Currents Weather Stations Pressure Air Temp Water Temp Dewpoint Dewpoint Depression Visibility Wind Speed Wind Dir Waves Ship Positions

Pacific Beryl

Last reported at 2017-Aug-05 10:49 UTC. Time now 2017-Aug-20 13:42 UTC.
Position S 29°35' E 032°25'.
Warning: this ship's position is 15 days out of date.

Length 182 m; draft 8.1 m.

Type: Tanker. MMSI: 566366000.

Date/timePositionNaut miles runAvg speedWind from/ knotsBaromVisibWave heightAir tempDewpointWater temp
2017-Aug-05 10:49S 29°35' E 032°25'310.1
2017-Aug-05 10:30S 29°37' E 032°22'510.2
2017-Aug-05 10:00S 29°42' E 032°19'510.3
2017-Aug-05 09:30S 29°46' E 032°15'510.3
2017-Aug-05 09:00S 29°50' E 032°11'510.3
2017-Aug-05 08:30S 29°54' E 032°08'510.2
2017-Aug-05 08:00S 29°58' E 032°04'510.6
2017-Aug-05 07:30S 30°02' E 032°00'510.4
2017-Aug-05 07:00S 30°06' E 031°57'510.1
2017-Aug-05 06:30S 30°10' E 031°53'5 9.8
2017-Aug-05 05:59S 30°14' E 031°49'5 9.9
2017-Aug-05 05:30S 30°17' E 031°46'5 9.7
2017-Aug-05 05:00S 30°21' E 031°42'5 9.8
2017-Aug-05 04:30S 30°25' E 031°39'5 9.7
2017-Aug-05 04:00S 30°29' E 031°35'5 9.7
2017-Aug-05 03:30S 30°33' E 031°32'5 9.7
2017-Aug-05 03:00S 30°37' E 031°29'5 9.7
2017-Aug-05 02:29S 30°40' E 031°25'5 9.6
2017-Aug-05 01:59S 30°44' E 031°21'6 9.5
2017-Aug-05 01:23S 30°49' E 031°17'4 9.4
2017-Aug-05 00:58S 30°52' E 031°15'6 9.4
2017-Aug-05 00:19S 30°56' E 031°10'3 9.3
2017-Aug-04 23:57S 30°59' E 031°07'4 9.3
2017-Aug-04 23:30S 31°02' E 031°04'6 9.1
2017-Aug-04 22:53S 31°06' E 030°59'4 9.1
2017-Aug-04 22:30S 31°08' E 030°56'5 9.0
2017-Aug-04 21:57S 31°12' E 030°52'4 9.0
2017-Aug-04 21:30S 31°15' E 030°49'  
2017-Jul-29 13:51S 31°17' E 030°46'513.8
2017-Jul-29 13:30S 31°14' E 030°50'713.6
2017-Jul-29 13:00S 31°09' E 030°56'713.5
2017-Jul-29 12:30S 31°04' E 031°02'713.5
2017-Jul-29 12:00S 30°59' E 031°07'713.3
2017-Jul-29 11:31S 30°55' E 031°13'613.0
2017-Jul-29 11:00S 30°48' E 031°13'713.1
2017-Jul-29 10:30S 30°42' E 031°13'713.3
2017-Jul-29 10:00S 30°35' E 031°13'713.5
2017-Jul-29 09:30S 30°28' E 031°13'714.1
2017-Jul-29 09:00S 30°21' E 031°14'714.1
2017-Jul-29 08:31S 30°14' E 031°14'713.8
2017-Jul-29 08:00S 30°08' E 031°14'612.7
2017-Jul-29 07:31S 30°01' E 031°15'612.1
2017-Jul-29 07:00S 29°56' E 031°12'611.9
2017-Jul-29 06:30S 29°51' E 031°08'4 8.3
2017-Jul-29 06:00S 29°52' E 031°03'2 2.9
2017-Jul-29 05:28S 29°53' E 031°02'0 0.0
2017-Jul-29 04:58S 29°53' E 031°02'0 0.0
2017-Jul-29 04:28S 29°53' E 031°02'0 0.0
2017-Jul-29 03:58S 29°53' E 031°02'0 0.0
2017-Jul-29 03:28S 29°53' E 031°02'0 0.0
2017-Jul-29 02:58S 29°53' E 031°02'0 0.0
2017-Jul-29 02:28S 29°53' E 031°02'0 0.0
2017-Jul-29 01:58S 29°53' E 031°02'0 0.0
2017-Jul-29 01:28S 29°53' E 031°02'0 0.0
2017-Jul-29 00:58S 29°53' E 031°02'0 0.0
2017-Jul-29 00:28S 29°53' E 031°02'0 0.0
2017-Jul-28 23:58S 29°53' E 031°02'0 0.0
2017-Jul-28 23:28S 29°53' E 031°02'0 0.0
2017-Jul-28 22:58S 29°53' E 031°02'0 0.0
2017-Jul-28 22:28S 29°53' E 031°02'0 0.0
2017-Jul-28 21:58S 29°53' E 031°02'0 0.0
2017-Jul-28 21:25S 29°53' E 031°02'0 0.0
2017-Jul-28 20:58S 29°53' E 031°02'0 0.0
2017-Jul-28 20:28S 29°53' E 031°02'0 0.0
2017-Jul-28 19:58S 29°53' E 031°02'0 0.0
2017-Jul-28 19:28S 29°53' E 031°02'0 0.0
2017-Jul-28 18:58S 29°53' E 031°02'0 0.0
2017-Jul-28 18:28S 29°53' E 031°02'0 0.0
2017-Jul-28 17:58S 29°53' E 031°02'0 0.0
2017-Jul-28 17:28S 29°53' E 031°02'0 0.0
2017-Jul-28 16:58S 29°53' E 031°02'0 0.0
2017-Jul-28 16:28S 29°53' E 031°02'0 0.0
2017-Jul-28 15:58S 29°53' E 031°02'0 0.0
2017-Jul-28 15:28S 29°53' E 031°02'0 0.0
2017-Jul-28 14:58S 29°53' E 031°02'0 0.0
2017-Jul-28 14:28S 29°53' E 031°02'0 0.0
2017-Jul-28 13:58S 29°53' E 031°02'0 0.0
2017-Jul-28 13:28S 29°53' E 031°02'0 0.0
2017-Jul-28 12:55S 29°53' E 031°02'0 0.0
2017-Jul-28 12:28S 29°53' E 031°02'0 0.0
2017-Jul-28 11:58S 29°53' E 031°02'0 0.0
2017-Jul-28 11:28S 29°53' E 031°02'0 0.0
2017-Jul-28 10:55S 29°53' E 031°02'0 0.0
2017-Jul-28 10:28S 29°53' E 031°02'0 0.0
2017-Jul-28 09:58S 29°53' E 031°02'0 0.0
2017-Jul-28 09:28S 29°53' E 031°02'0 0.0
2017-Jul-28 08:58S 29°53' E 031°02'0 0.0
2017-Jul-28 08:28S 29°53' E 031°02'0 0.0
2017-Jul-28 07:58S 29°53' E 031°02'0 0.0
2017-Jul-28 07:28S 29°53' E 031°02'0 0.0
2017-Jul-28 06:58S 29°53' E 031°02'0 0.0
2017-Jul-28 06:28S 29°53' E 031°02'0 0.0
2017-Jul-28 05:58S 29°53' E 031°02'0 0.0
2017-Jul-28 05:28S 29°53' E 031°02'0 0.0
2017-Jul-28 04:58S 29°53' E 031°02'0 0.0
2017-Jul-28 04:28S 29°53' E 031°02'0 0.0
2017-Jul-28 03:58S 29°53' E 031°02'0 0.0
2017-Jul-28 03:28S 29°53' E 031°02'0 0.0
2017-Jul-28 02:58S 29°53' E 031°02'0 0.0
2017-Jul-28 02:28S 29°53' E 031°02'0 0.0
2017-Jul-28 01:58S 29°53' E 031°02'0 0.0
2017-Jul-28 01:28S 29°53' E 031°02'0 0.0
2017-Jul-28 00:55S 29°53' E 031°02'0 0.0
2017-Jul-28 00:28S 29°53' E 031°02'0 0.0
2017-Jul-27 23:58S 29°53' E 031°02'0 0.0
2017-Jul-27 23:28S 29°53' E 031°02'0 0.0
2017-Jul-27 22:58S 29°53' E 031°02'0 0.0
2017-Jul-27 22:28S 29°53' E 031°02'0 0.0
2017-Jul-27 21:58S 29°53' E 031°02'0 0.0
2017-Jul-27 21:28S 29°53' E 031°02'0 0.0
2017-Jul-27 20:55S 29°53' E 031°02'0 0.0
2017-Jul-27 20:28S 29°53' E 031°02'0 0.0
2017-Jul-27 19:58S 29°53' E 031°02'0 0.0
2017-Jul-27 19:28S 29°53' E 031°02'0 0.0
2017-Jul-27 18:58S 29°53' E 031°02'0 0.0
2017-Jul-27 18:28S 29°53' E 031°02'0 0.0
2017-Jul-27 17:58S 29°53' E 031°02'0 0.0
2017-Jul-27 17:28S 29°53' E 031°02'0 0.0
2017-Jul-27 16:58S 29°53' E 031°02'0 0.0
2017-Jul-27 16:25S 29°53' E 031°02'0 0.0
2017-Jul-27 15:58S 29°53' E 031°02'0 0.0
2017-Jul-27 15:28S 29°53' E 031°02'0 0.0
2017-Jul-27 14:58S 29°53' E 031°02'0 0.0
2017-Jul-27 13:58S 29°53' E 031°02'0 0.0
2017-Jul-27 13:28S 29°53' E 031°02'0 0.0
2017-Jul-27 12:58S 29°53' E 031°02'0 0.0
2017-Jul-27 12:28S 29°53' E 031°02'0 0.0
2017-Jul-27 11:58S 29°53' E 031°02'0 0.0
2017-Jul-27 11:28S 29°53' E 031°02'0 0.0
2017-Jul-27 10:58S 29°53' E 031°02'0 0.0
2017-Jul-27 10:28S 29°53' E 031°02'0 0.0
2017-Jul-27 09:58S 29°53' E 031°02'0 0.0
2017-Jul-27 09:28S 29°53' E 031°02'0 0.0
2017-Jul-27 08:58S 29°53' E 031°02'0 0.0
2017-Jul-27 08:28S 29°53' E 031°02'0 0.0
2017-Jul-27 07:58S 29°53' E 031°02'0 0.0
2017-Jul-27 07:28S 29°53' E 031°02'0 0.0
2017-Jul-27 06:58S 29°53' E 031°02'0 0.0
2017-Jul-27 06:28S 29°53' E 031°02'0 0.0
2017-Jul-27 05:58S 29°53' E 031°02'0 0.0
2017-Jul-27 05:28S 29°53' E 031°02'0 0.0
2017-Jul-27 04:58S 29°53' E 031°02'0 0.0
2017-Jul-27 04:28S 29°53' E 031°02'0 0.0
2017-Jul-27 03:58S 29°53' E 031°02'0 0.0
2017-Jul-27 03:28S 29°53' E 031°02'0 0.0
2017-Jul-27 02:58S 29°53' E 031°02'0 0.0
2017-Jul-27 02:28S 29°53' E 031°02'0 0.0
2017-Jul-27 01:58S 29°53' E 031°02'0 0.0
2017-Jul-27 01:28S 29°53' E 031°02'0 0.0
2017-Jul-27 00:58S 29°53' E 031°02'0 0.0
2017-Jul-27 00:28S 29°53' E 031°02'0 0.0
2017-Jul-26 23:58S 29°53' E 031°02'0 0.0
2017-Jul-26 23:28S 29°53' E 031°02'0 0.0
2017-Jul-26 22:58S 29°53' E 031°02'0 0.0
2017-Jul-26 22:28S 29°53' E 031°02'0 0.0
2017-Jul-26 21:58S 29°53' E 031°02'0 0.0
2017-Jul-26 21:28S 29°53' E 031°02'0 0.0
2017-Jul-26 20:58S 29°53' E 031°02'0 0.0
2017-Jul-26 20:28S 29°53' E 031°02'0 0.0
2017-Jul-26 19:58S 29°53' E 031°02'0 0.0
2017-Jul-26 19:28S 29°53' E 031°02'0 0.0
2017-Jul-26 18:58S 29°53' E 031°02'0 0.0
2017-Jul-26 18:28S 29°53' E 031°02'0 0.0
2017-Jul-26 17:58S 29°53' E 031°02'0 0.0
2017-Jul-26 17:28S 29°53' E 031°02'0 0.0
2017-Jul-26 16:58S 29°53' E 031°02'0 0.0
2017-Jul-26 16:28S 29°53' E 031°02'0 0.0
2017-Jul-26 15:58S 29°53' E 031°02'0 0.0
2017-Jul-26 15:28S 29°53' E 031°02'0 0.0
2017-Jul-26 14:58S 29°53' E 031°02'0 0.0
2017-Jul-26 13:58S 29°53' E 031°02'0 0.0
2017-Jul-26 13:28S 29°53' E 031°02'0 0.0
2017-Jul-26 12:58S 29°53' E 031°02'0 0.0
2017-Jul-26 12:28S 29°53' E 031°02'0 0.0
2017-Jul-26 11:58S 29°53' E 031°02'0 0.0
2017-Jul-26 11:28S 29°53' E 031°02'0 0.0
2017-Jul-26 10:58S 29°53' E 031°02'  
Track history (hours):
 
Tides and Currents Weather Stations Pressure Air Temp Water Temp Dewpoint Dewpoint Depression Visibility Wind Speed Wind Dir Waves Ship Positions

Pacific Beryl

Last reported at 2017-Aug-05 10:49 UTC. Time now 2017-Aug-20 13:42 UTC.
Position S 29°35' E 032°25'.
Warning: this ship's position is 15 days out of date.

Length 182 m; draft 8.1 m.

Type: Tanker. MMSI: 566366000.

Date/timePositionNaut miles runAvg speedWind from/ knotsBaromVisibWave heightAir tempDewpointWater temp
2017-Aug-05 10:49S 29°35' E 032°25'310.1
2017-Aug-05 10:30S 29°37' E 032°22'510.2
2017-Aug-05 10:00S 29°42' E 032°19'510.3
2017-Aug-05 09:30S 29°46' E 032°15'510.3
2017-Aug-05 09:00S 29°50' E 032°11'510.3
2017-Aug-05 08:30S 29°54' E 032°08'510.2
2017-Aug-05 08:00S 29°58' E 032°04'510.6
2017-Aug-05 07:30S 30°02' E 032°00'510.4
2017-Aug-05 07:00S 30°06' E 031°57'510.1
2017-Aug-05 06:30S 30°10' E 031°53'5 9.8
2017-Aug-05 05:59S 30°14' E 031°49'5 9.9
2017-Aug-05 05:30S 30°17' E 031°46'5 9.7
2017-Aug-05 05:00S 30°21' E 031°42'5 9.8
2017-Aug-05 04:30S 30°25' E 031°39'5 9.7
2017-Aug-05 04:00S 30°29' E 031°35'5 9.7
2017-Aug-05 03:30S 30°33' E 031°32'5 9.7
2017-Aug-05 03:00S 30°37' E 031°29'5 9.7
2017-Aug-05 02:29S 30°40' E 031°25'5 9.6
2017-Aug-05 01:59S 30°44' E 031°21'6 9.5
2017-Aug-05 01:23S 30°49' E 031°17'4 9.4
2017-Aug-05 00:58S 30°52' E 031°15'6 9.4
2017-Aug-05 00:19S 30°56' E 031°10'3 9.3
2017-Aug-04 23:57S 30°59' E 031°07'4 9.3
2017-Aug-04 23:30S 31°02' E 031°04'6 9.1
2017-Aug-04 22:53S 31°06' E 030°59'4 9.1
2017-Aug-04 22:30S 31°08' E 030°56'5 9.0
2017-Aug-04 21:57S 31°12' E 030°52'4 9.0
2017-Aug-04 21:30S 31°15' E 030°49'  
2017-Jul-29 13:51S 31°17' E 030°46'513.8
2017-Jul-29 13:30S 31°14' E 030°50'713.6
2017-Jul-29 13:00S 31°09' E 030°56'713.5
2017-Jul-29 12:30S 31°04' E 031°02'713.5
2017-Jul-29 12:00S 30°59' E 031°07'713.3
2017-Jul-29 11:31S 30°55' E 031°13'613.0
2017-Jul-29 11:00S 30°48' E 031°13'713.1
2017-Jul-29 10:30S 30°42' E 031°13'713.3
2017-Jul-29 10:00S 30°35' E 031°13'713.5
2017-Jul-29 09:30S 30°28' E 031°13'714.1
2017-Jul-29 09:00S 30°21' E 031°14'714.1
2017-Jul-29 08:31S 30°14' E 031°14'713.8
2017-Jul-29 08:00S 30°08' E 031°14'612.7
2017-Jul-29 07:31S 30°01' E 031°15'612.1
2017-Jul-29 07:00S 29°56' E 031°12'611.9
2017-Jul-29 06:30S 29°51' E 031°08'4 8.3
2017-Jul-29 06:00S 29°52' E 031°03'2 2.9
2017-Jul-29 05:28S 29°53' E 031°02'0 0.0
2017-Jul-29 04:58S 29°53' E 031°02'0 0.0
2017-Jul-29 04:28S 29°53' E 031°02'0 0.0
2017-Jul-29 03:58S 29°53' E 031°02'0 0.0
2017-Jul-29 03:28S 29°53' E 031°02'0 0.0
2017-Jul-29 02:58S 29°53' E 031°02'0 0.0
2017-Jul-29 02:28S 29°53' E 031°02'0 0.0
2017-Jul-29 01:58S 29°53' E 031°02'0 0.0
2017-Jul-29 01:28S 29°53' E 031°02'0 0.0
2017-Jul-29 00:58S 29°53' E 031°02'0 0.0
2017-Jul-29 00:28S 29°53' E 031°02'0 0.0
2017-Jul-28 23:58S 29°53' E 031°02'0 0.0
2017-Jul-28 23:28S 29°53' E 031°02'0 0.0
2017-Jul-28 22:58S 29°53' E 031°02'0 0.0
2017-Jul-28 22:28S 29°53' E 031°02'0 0.0
2017-Jul-28 21:58S 29°53' E 031°02'0 0.0
2017-Jul-28 21:25S 29°53' E 031°02'0 0.0
2017-Jul-28 20:58S 29°53' E 031°02'0 0.0
2017-Jul-28 20:28S 29°53' E 031°02'0 0.0
2017-Jul-28 19:58S 29°53' E 031°02'0 0.0
2017-Jul-28 19:28S 29°53' E 031°02'0 0.0
2017-Jul-28 18:58S 29°53' E 031°02'0 0.0
2017-Jul-28 18:28S 29°53' E 031°02'0 0.0
2017-Jul-28 17:58S 29°53' E 031°02'0 0.0
2017-Jul-28 17:28S 29°53' E 031°02'0 0.0
2017-Jul-28 16:58S 29°53' E 031°02'0 0.0
2017-Jul-28 16:28S 29°53' E 031°02'0 0.0
2017-Jul-28 15:58S 29°53' E 031°02'0 0.0
2017-Jul-28 15:28S 29°53' E 031°02'0 0.0
2017-Jul-28 14:58S 29°53' E 031°02'0 0.0
2017-Jul-28 14:28S 29°53' E 031°02'0 0.0
2017-Jul-28 13:58S 29°53' E 031°02'0 0.0
2017-Jul-28 13:28S 29°53' E 031°02'0 0.0
2017-Jul-28 12:55S 29°53' E 031°02'0 0.0
2017-Jul-28 12:28S 29°53' E 031°02'0 0.0
2017-Jul-28 11:58S 29°53' E 031°02'0 0.0
2017-Jul-28 11:28S 29°53' E 031°02'0 0.0
2017-Jul-28 10:55S 29°53' E 031°02'0 0.0
2017-Jul-28 10:28S 29°53' E 031°02'0 0.0
2017-Jul-28 09:58S 29°53' E 031°02'0 0.0
2017-Jul-28 09:28S 29°53' E 031°02'0 0.0
2017-Jul-28 08:58S 29°53' E 031°02'0 0.0
2017-Jul-28 08:28S 29°53' E 031°02'0 0.0
2017-Jul-28 07:58S 29°53' E 031°02'0 0.0
2017-Jul-28 07:28S 29°53' E 031°02'0 0.0
2017-Jul-28 06:58S 29°53' E 031°02'0 0.0
2017-Jul-28 06:28S 29°53' E 031°02'0 0.0
2017-Jul-28 05:58S 29°53' E 031°02'0 0.0
2017-Jul-28 05:28S 29°53' E 031°02'0 0.0
2017-Jul-28 04:58S 29°53' E 031°02'0 0.0
2017-Jul-28 04:28S 29°53' E 031°02'0 0.0
2017-Jul-28 03:58S 29°53' E 031°02'0 0.0
2017-Jul-28 03:28S 29°53' E 031°02'0 0.0
2017-Jul-28 02:58S 29°53' E 031°02'0 0.0
2017-Jul-28 02:28S 29°53' E 031°02'0 0.0
2017-Jul-28 01:58S 29°53' E 031°02'0 0.0
2017-Jul-28 01:28S 29°53' E 031°02'0 0.0
2017-Jul-28 00:55S 29°53' E 031°02'0 0.0
2017-Jul-28 00:28S 29°53' E 031°02'0 0.0
2017-Jul-27 23:58S 29°53' E 031°02'0 0.0
2017-Jul-27 23:28S 29°53' E 031°02'0 0.0
2017-Jul-27 22:58S 29°53' E 031°02'0 0.0
2017-Jul-27 22:28S 29°53' E 031°02'0 0.0
2017-Jul-27 21:58S 29°53' E 031°02'0 0.0
2017-Jul-27 21:28S 29°53' E 031°02'0 0.0
2017-Jul-27 20:55S 29°53' E 031°02'0 0.0
2017-Jul-27 20:28S 29°53' E 031°02'0 0.0
2017-Jul-27 19:58S 29°53' E 031°02'0 0.0
2017-Jul-27 19:28S 29°53' E 031°02'0 0.0
2017-Jul-27 18:58S 29°53' E 031°02'0 0.0
2017-Jul-27 18:28S 29°53' E 031°02'0 0.0
2017-Jul-27 17:58S 29°53' E 031°02'0 0.0
2017-Jul-27 17:28S 29°53' E 031°02'0 0.0
2017-Jul-27 16:58S 29°53' E 031°02'0 0.0
2017-Jul-27 16:25S 29°53' E 031°02'0 0.0
2017-Jul-27 15:58S 29°53' E 031°02'0 0.0
2017-Jul-27 15:28S 29°53' E 031°02'0 0.0
2017-Jul-27 14:58S 29°53' E 031°02'0 0.0
2017-Jul-27 13:58S 29°53' E 031°02'0 0.0
2017-Jul-27 13:28S 29°53' E 031°02'0 0.0
2017-Jul-27 12:58S 29°53' E 031°02'0 0.0
2017-Jul-27 12:28S 29°53' E 031°02'0 0.0
2017-Jul-27 11:58S 29°53' E 031°02'0 0.0
2017-Jul-27 11:28S 29°53' E 031°02'0 0.0
2017-Jul-27 10:58S 29°53' E 031°02'0 0.0
2017-Jul-27 10:28S 29°53' E 031°02'0 0.0
2017-Jul-27 09:58S 29°53' E 031°02'0 0.0
2017-Jul-27 09:28S 29°53' E 031°02'0 0.0
2017-Jul-27 08:58S 29°53' E 031°02'0 0.0
2017-Jul-27 08:28S 29°53' E 031°02'0 0.0
2017-Jul-27 07:58S 29°53' E 031°02'0 0.0
2017-Jul-27 07:28S 29°53' E 031°02'0 0.0
2017-Jul-27 06:58S 29°53' E 031°02'0 0.0
2017-Jul-27 06:28S 29°53' E 031°02'0 0.0
2017-Jul-27 05:58S 29°53' E 031°02'0 0.0
2017-Jul-27 05:28S 29°53' E 031°02'0 0.0
2017-Jul-27 04:58S 29°53' E 031°02'0 0.0
2017-Jul-27 04:28S 29°53' E 031°02'0 0.0
2017-Jul-27 03:58S 29°53' E 031°02'0 0.0
2017-Jul-27 03:28S 29°53' E 031°02'0 0.0
2017-Jul-27 02:58S 29°53' E 031°02'0 0.0
2017-Jul-27 02:28S 29°53' E 031°02'0 0.0
2017-Jul-27 01:58S 29°53' E 031°02'0 0.0
2017-Jul-27 01:28S 29°53' E 031°02'0 0.0
2017-Jul-27 00:58S 29°53' E 031°02'0 0.0
2017-Jul-27 00:28S 29°53' E 031°02'0 0.0
2017-Jul-26 23:58S 29°53' E 031°02'0 0.0
2017-Jul-26 23:28S 29°53' E 031°02'0 0.0
2017-Jul-26 22:58S 29°53' E 031°02'0 0.0
2017-Jul-26 22:28S 29°53' E 031°02'0 0.0
2017-Jul-26 21:58S 29°53' E 031°02'0 0.0
2017-Jul-26 21:28S 29°53' E 031°02'0 0.0
2017-Jul-26 20:58S 29°53' E 031°02'0 0.0
2017-Jul-26 20:28S 29°53' E 031°02'0 0.0
2017-Jul-26 19:58S 29°53' E 031°02'0 0.0
2017-Jul-26 19:28S 29°53' E 031°02'0 0.0
2017-Jul-26 18:58S 29°53' E 031°02'0 0.0
2017-Jul-26 18:28S 29°53' E 031°02'0 0.0
2017-Jul-26 17:58S 29°53' E 031°02'0 0.0
2017-Jul-26 17:28S 29°53' E 031°02'0 0.0
2017-Jul-26 16:58S 29°53' E 031°02'0 0.0
2017-Jul-26 16:28S 29°53' E 031°02'0 0.0
2017-Jul-26 15:58S 29°53' E 031°02'0 0.0
2017-Jul-26 15:28S 29°53' E 031°02'0 0.0
2017-Jul-26 14:58S 29°53' E 031°02'0 0.0
2017-Jul-26 13:58S 29°53' E 031°02'0 0.0
2017-Jul-26 13:28S 29°53' E 031°02'0 0.0
2017-Jul-26 12:58S 29°53' E 031°02'0 0.0
2017-Jul-26 12:28S 29°53' E 031°02'0 0.0
2017-Jul-26 11:58S 29°53' E 031°02'0 0.0
2017-Jul-26 11:28S 29°53' E 031°02'0 0.0
2017-Jul-26 10:58S 29°53' E 031°02'  

Dump ship's entire track history